sensor_id;sensor_type;location;lat;lon;timestamp;P1;durP1;ratioP1;P2;durP2;ratioP2
22046;SDS011;11187;49.412;20.956;2024-02-16T00:01:44;36.53;;;25.63;;
22046;SDS011;11187;49.412;20.956;2024-02-16T00:04:18;38.58;;;26.77;;
22046;SDS011;11187;49.412;20.956;2024-02-16T00:07:04;35.20;;;27.65;;
22046;SDS011;11187;49.412;20.956;2024-02-16T00:09:38;36.13;;;27.55;;
22046;SDS011;11187;49.412;20.956;2024-02-16T00:12:24;39.00;;;27.77;;
22046;SDS011;11187;49.412;20.956;2024-02-16T00:14:58;36.78;;;28.52;;
22046;SDS011;11187;49.412;20.956;2024-02-16T00:17:48;34.55;;;26.73;;
22046;SDS011;11187;49.412;20.956;2024-02-16T00:20:22;35.75;;;27.23;;
22046;SDS011;11187;49.412;20.956;2024-02-16T00:23:16;37.42;;;26.50;;
22046;SDS011;11187;49.412;20.956;2024-02-16T00:25:52;36.85;;;27.52;;
22046;SDS011;11187;49.412;20.956;2024-02-16T00:28:45;36.53;;;26.35;;
22046;SDS011;11187;49.412;20.956;2024-02-16T00:31:19;46.00;;;27.98;;
22046;SDS011;11187;49.412;20.956;2024-02-16T00:34:14;45.85;;;27.30;;
22046;SDS011;11187;49.412;20.956;2024-02-16T00:36:47;40.47;;;28.55;;
22046;SDS011;11187;49.412;20.956;2024-02-16T00:39:38;44.17;;;29.13;;
22046;SDS011;11187;49.412;20.956;2024-02-16T00:42:21;42.35;;;29.02;;
22046;SDS011;11187;49.412;20.956;2024-02-16T00:45:03;43.20;;;29.23;;
22046;SDS011;11187;49.412;20.956;2024-02-16T00:47:44;37.38;;;28.02;;
22046;SDS011;11187;49.412;20.956;2024-02-16T00:50:24;39.33;;;29.48;;
22046;SDS011;11187;49.412;20.956;2024-02-16T00:53:05;36.80;;;28.08;;
22046;SDS011;11187;49.412;20.956;2024-02-16T00:55:52;40.63;;;29.63;;
22046;SDS011;11187;49.412;20.956;2024-02-16T00:58:51;42.50;;;28.63;;
22046;SDS011;11187;49.412;20.956;2024-02-16T01:01:31;42.80;;;29.30;;
22046;SDS011;11187;49.412;20.956;2024-02-16T01:04:18;39.72;;;28.35;;
22046;SDS011;11187;49.412;20.956;2024-02-16T01:07:12;39.30;;;27.73;;
22046;SDS011;11187;49.412;20.956;2024-02-16T01:10:06;41.25;;;28.52;;
22046;SDS011;11187;49.412;20.956;2024-02-16T01:12:40;41.70;;;28.58;;
22046;SDS011;11187;49.412;20.956;2024-02-16T01:15:26;39.35;;;27.52;;
22046;SDS011;11187;49.412;20.956;2024-02-16T01:18:00;38.75;;;27.98;;
22046;SDS011;11187;49.412;20.956;2024-02-16T01:20:46;37.75;;;28.70;;
22046;SDS011;11187;49.412;20.956;2024-02-16T01:23:20;34.67;;;27.50;;
22046;SDS011;11187;49.412;20.956;2024-02-16T01:26:13;33.08;;;26.55;;
22046;SDS011;11187;49.412;20.956;2024-02-16T01:28:47;40.83;;;28.55;;
22046;SDS011;11187;49.412;20.956;2024-02-16T01:31:33;34.22;;;25.95;;
22046;SDS011;11187;49.412;20.956;2024-02-16T01:34:09;31.38;;;25.27;;
22046;SDS011;11187;49.412;20.956;2024-02-16T01:36:56;36.67;;;26.05;;
22046;SDS011;11187;49.412;20.956;2024-02-16T01:39:29;35.88;;;27.23;;
22046;SDS011;11187;49.412;20.956;2024-02-16T01:42:15;34.05;;;25.38;;
22046;SDS011;11187;49.412;20.956;2024-02-16T01:45:03;36.22;;;27.17;;
22046;SDS011;11187;49.412;20.956;2024-02-16T01:47:43;36.20;;;27.60;;
22046;SDS011;11187;49.412;20.956;2024-02-16T01:50:24;38.13;;;27.83;;
22046;SDS011;11187;49.412;20.956;2024-02-16T01:53:09;43.85;;;28.33;;
22046;SDS011;11187;49.412;20.956;2024-02-16T01:55:44;38.78;;;28.60;;
22046;SDS011;11187;49.412;20.956;2024-02-16T01:58:41;36.33;;;27.00;;
22046;SDS011;11187;49.412;20.956;2024-02-16T02:01:35;34.55;;;27.00;;
22046;SDS011;11187;49.412;20.956;2024-02-16T02:04:09;37.20;;;28.00;;
22046;SDS011;11187;49.412;20.956;2024-02-16T02:06:56;39.80;;;27.63;;
22046;SDS011;11187;49.412;20.956;2024-02-16T02:09:30;42.97;;;27.27;;
22046;SDS011;11187;49.412;20.956;2024-02-16T02:12:17;39.35;;;28.42;;
22046;SDS011;11187;49.412;20.956;2024-02-16T02:14:51;40.88;;;28.13;;
22046;SDS011;11187;49.412;20.956;2024-02-16T02:17:38;42.88;;;28.75;;
22046;SDS011;11187;49.412;20.956;2024-02-16T02:20:12;41.25;;;28.70;;
22046;SDS011;11187;49.412;20.956;2024-02-16T02:22:58;44.83;;;28.70;;
22046;SDS011;11187;49.412;20.956;2024-02-16T02:25:32;41.22;;;29.52;;
22046;SDS011;11187;49.412;20.956;2024-02-16T02:28:19;38.50;;;28.80;;
22046;SDS011;11187;49.412;20.956;2024-02-16T02:30:57;48.88;;;28.63;;
22046;SDS011;11187;49.412;20.956;2024-02-16T02:33:50;41.85;;;30.83;;
22046;SDS011;11187;49.412;20.956;2024-02-16T02:36:44;40.28;;;28.95;;
22046;SDS011;11187;49.412;20.956;2024-02-16T02:39:25;41.63;;;30.42;;
22046;SDS011;11187;49.412;20.956;2024-02-16T02:42:04;42.95;;;29.00;;
22046;SDS011;11187;49.412;20.956;2024-02-16T02:44:45;46.22;;;29.35;;
22046;SDS011;11187;49.412;20.956;2024-02-16T02:47:31;43.70;;;28.45;;
22046;SDS011;11187;49.412;20.956;2024-02-16T02:50:06;44.22;;;28.25;;
22046;SDS011;11187;49.412;20.956;2024-02-16T02:52:52;36.72;;;27.42;;
22046;SDS011;11187;49.412;20.956;2024-02-16T02:55:26;44.60;;;29.40;;
22046;SDS011;11187;49.412;20.956;2024-02-16T02:58:12;48.65;;;29.38;;
22046;SDS011;11187;49.412;20.956;2024-02-16T03:00:46;43.75;;;30.08;;
22046;SDS011;11187;49.412;20.956;2024-02-16T03:03:32;40.50;;;28.73;;
22046;SDS011;11187;49.412;20.956;2024-02-16T03:06:13;37.47;;;28.58;;
22046;SDS011;11187;49.412;20.956;2024-02-16T03:09:03;39.60;;;29.17;;
22046;SDS011;11187;49.412;20.956;2024-02-16T03:11:38;36.30;;;28.17;;
22046;SDS011;11187;49.412;20.956;2024-02-16T03:14:25;39.00;;;30.85;;
22046;SDS011;11187;49.412;20.956;2024-02-16T03:16:59;39.15;;;30.52;;
22046;SDS011;11187;49.412;20.956;2024-02-16T03:19:52;44.88;;;31.42;;
22046;SDS011;11187;49.412;20.956;2024-02-16T03:22:26;49.22;;;28.17;;
22046;SDS011;11187;49.412;20.956;2024-02-16T03:25:19;35.63;;;28.35;;
22046;SDS011;11187;49.412;20.956;2024-02-16T03:27:54;44.65;;;28.92;;
22046;SDS011;11187;49.412;20.956;2024-02-16T03:30:41;58.33;;;30.30;;
22046;SDS011;11187;49.412;20.956;2024-02-16T03:33:15;53.78;;;27.20;;
22046;SDS011;11187;49.412;20.956;2024-02-16T03:36:01;51.28;;;28.80;;
22046;SDS011;11187;49.412;20.956;2024-02-16T03:38:36;37.13;;;29.15;;
22046;SDS011;11187;49.412;20.956;2024-02-16T03:41:23;41.95;;;29.00;;
22046;SDS011;11187;49.412;20.956;2024-02-16T03:43:56;41.35;;;30.08;;
22046;SDS011;11187;49.412;20.956;2024-02-16T03:46:42;45.80;;;28.58;;
22046;SDS011;11187;49.412;20.956;2024-02-16T03:49:18;46.20;;;28.70;;
22046;SDS011;11187;49.412;20.956;2024-02-16T03:52:07;45.65;;;27.65;;
22046;SDS011;11187;49.412;20.956;2024-02-16T03:54:41;51.22;;;29.05;;
22046;SDS011;11187;49.412;20.956;2024-02-16T03:57:30;57.55;;;29.50;;
22046;SDS011;11187;49.412;20.956;2024-02-16T04:00:03;63.45;;;30.00;;
22046;SDS011;11187;49.412;20.956;2024-02-16T04:02:52;40.78;;;28.45;;
22046;SDS011;11187;49.412;20.956;2024-02-16T04:05:26;43.40;;;28.35;;
22046;SDS011;11187;49.412;20.956;2024-02-16T04:08:14;46.50;;;29.70;;
22046;SDS011;11187;49.412;20.956;2024-02-16T04:10:48;51.75;;;29.42;;
22046;SDS011;11187;49.412;20.956;2024-02-16T04:13:41;42.42;;;27.25;;
22046;SDS011;11187;49.412;20.956;2024-02-16T04:16:18;39.55;;;28.80;;
22046;SDS011;11187;49.412;20.956;2024-02-16T04:19:04;41.47;;;27.67;;
22046;SDS011;11187;49.412;20.956;2024-02-16T04:21:38;38.65;;;28.92;;
22046;SDS011;11187;49.412;20.956;2024-02-16T04:24:24;34.97;;;26.90;;
22046;SDS011;11187;49.412;20.956;2024-02-16T04:26:58;35.72;;;25.48;;
22046;SDS011;11187;49.412;20.956;2024-02-16T04:29:51;29.90;;;25.35;;
22046;SDS011;11187;49.412;20.956;2024-02-16T04:32:45;31.90;;;23.85;;
22046;SDS011;11187;49.412;20.956;2024-02-16T04:35:39;33.45;;;24.50;;
22046;SDS011;11187;49.412;20.956;2024-02-16T04:38:34;46.53;;;27.30;;
22046;SDS011;11187;49.412;20.956;2024-02-16T04:41:29;40.75;;;27.45;;
22046;SDS011;11187;49.412;20.956;2024-02-16T04:44:02;46.65;;;29.20;;
22046;SDS011;11187;49.412;20.956;2024-02-16T04:46:50;40.35;;;27.48;;
22046;SDS011;11187;49.412;20.956;2024-02-16T04:49:25;47.55;;;28.98;;
22046;SDS011;11187;49.412;20.956;2024-02-16T04:52:18;48.83;;;28.60;;
22046;SDS011;11187;49.412;20.956;2024-02-16T04:54:56;41.97;;;26.67;;
22046;SDS011;11187;49.412;20.956;2024-02-16T04:57:43;51.78;;;29.15;;
22046;SDS011;11187;49.412;20.956;2024-02-16T05:00:17;50.38;;;29.60;;
22046;SDS011;11187;49.412;20.956;2024-02-16T05:03:10;47.33;;;28.77;;
22046;SDS011;11187;49.412;20.956;2024-02-16T05:06:04;48.75;;;27.05;;
22046;SDS011;11187;49.412;20.956;2024-02-16T05:08:58;38.50;;;26.38;;
22046;SDS011;11187;49.412;20.956;2024-02-16T05:11:32;49.38;;;28.65;;
22046;SDS011;11187;49.412;20.956;2024-02-16T05:14:19;48.70;;;30.08;;
22046;SDS011;11187;49.412;20.956;2024-02-16T05:16:53;41.33;;;29.23;;
22046;SDS011;11187;49.412;20.956;2024-02-16T05:19:39;41.80;;;28.80;;
22046;SDS011;11187;49.412;20.956;2024-02-16T05:22:13;46.72;;;30.95;;
22046;SDS011;11187;49.412;20.956;2024-02-16T05:25:08;48.97;;;29.10;;
22046;SDS011;11187;49.412;20.956;2024-02-16T05:27:43;61.35;;;30.85;;
22046;SDS011;11187;49.412;20.956;2024-02-16T05:30:37;60.30;;;30.25;;
22046;SDS011;11187;49.412;20.956;2024-02-16T05:33:20;54.67;;;31.85;;
22046;SDS011;11187;49.412;20.956;2024-02-16T05:39:13;50.40;;;31.15;;
22046;SDS011;11187;49.412;20.956;2024-02-16T05:42:12;50.60;;;29.25;;
22046;SDS011;11187;49.412;20.956;2024-02-16T05:44:46;51.72;;;31.63;;
22046;SDS011;11187;49.412;20.956;2024-02-16T05:47:35;63.42;;;33.70;;
22046;SDS011;11187;49.412;20.956;2024-02-16T05:50:14;50.70;;;30.33;;
22046;SDS011;11187;49.412;20.956;2024-02-16T05:53:08;42.33;;;27.75;;
22046;SDS011;11187;49.412;20.956;2024-02-16T05:55:43;45.20;;;30.90;;
22046;SDS011;11187;49.412;20.956;2024-02-16T05:58:29;48.15;;;29.48;;
22046;SDS011;11187;49.412;20.956;2024-02-16T06:01:03;66.57;;;32.20;;
22046;SDS011;11187;49.412;20.956;2024-02-16T06:03:52;72.22;;;33.00;;
22046;SDS011;11187;49.412;20.956;2024-02-16T06:06:46;40.65;;;29.45;;
22046;SDS011;11187;49.412;20.956;2024-02-16T06:09:20;47.33;;;29.95;;
22046;SDS011;11187;49.412;20.956;2024-02-16T06:12:19;47.33;;;29.58;;
22046;SDS011;11187;49.412;20.956;2024-02-16T06:15:13;41.60;;;29.58;;
22046;SDS011;11187;49.412;20.956;2024-02-16T06:17:48;41.53;;;28.17;;
22046;SDS011;11187;49.412;20.956;2024-02-16T06:20:35;41.38;;;29.05;;
22046;SDS011;11187;49.412;20.956;2024-02-16T06:23:09;39.42;;;27.27;;
22046;SDS011;11187;49.412;20.956;2024-02-16T06:26:07;52.05;;;29.13;;
22046;SDS011;11187;49.412;20.956;2024-02-16T06:28:42;44.92;;;29.48;;
22046;SDS011;11187;49.412;20.956;2024-02-16T06:31:28;41.92;;;27.17;;
22046;SDS011;11187;49.412;20.956;2024-02-16T06:34:02;45.65;;;28.25;;
22046;SDS011;11187;49.412;20.956;2024-02-16T06:36:56;39.45;;;28.73;;
22046;SDS011;11187;49.412;20.956;2024-02-16T06:39:50;41.55;;;25.98;;
22046;SDS011;11187;49.412;20.956;2024-02-16T06:42:43;40.13;;;28.45;;
22046;SDS011;11187;49.412;20.956;2024-02-16T06:45:37;43.10;;;29.17;;
22046;SDS011;11187;49.412;20.956;2024-02-16T06:48:11;44.17;;;28.63;;
22046;SDS011;11187;49.412;20.956;2024-02-16T06:51:04;36.03;;;27.42;;
22046;SDS011;11187;49.412;20.956;2024-02-16T06:53:58;42.65;;;29.15;;
22046;SDS011;11187;49.412;20.956;2024-02-16T06:56:53;38.60;;;27.30;;
22046;SDS011;11187;49.412;20.956;2024-02-16T06:59:51;42.65;;;27.70;;
22046;SDS011;11187;49.412;20.956;2024-02-16T07:02:26;43.53;;;30.48;;
22046;SDS011;11187;49.412;20.956;2024-02-16T07:05:19;48.03;;;29.33;;
22046;SDS011;11187;49.412;20.956;2024-02-16T07:08:16;47.35;;;29.73;;
22046;SDS011;11187;49.412;20.956;2024-02-16T07:10:50;41.38;;;27.90;;
22046;SDS011;11187;49.412;20.956;2024-02-16T07:13:41;46.00;;;29.40;;
22046;SDS011;11187;49.412;20.956;2024-02-16T07:16:17;55.65;;;30.77;;
22046;SDS011;11187;49.412;20.956;2024-02-16T07:19:04;53.00;;;33.22;;
22046;SDS011;11187;49.412;20.956;2024-02-16T07:21:38;62.28;;;36.65;;
22046;SDS011;11187;49.412;20.956;2024-02-16T07:24:24;54.53;;;32.47;;
22046;SDS011;11187;49.412;20.956;2024-02-16T07:27:05;61.25;;;32.85;;
22046;SDS011;11187;49.412;20.956;2024-02-16T07:29:48;70.78;;;36.25;;
22046;SDS011;11187;49.412;20.956;2024-02-16T07:32:29;70.25;;;39.35;;
22046;SDS011;11187;49.412;20.956;2024-02-16T07:35:08;72.13;;;40.92;;
22046;SDS011;11187;49.412;20.956;2024-02-16T07:37:55;69.03;;;38.88;;
22046;SDS011;11187;49.412;20.956;2024-02-16T07:40:34;57.10;;;33.60;;
22046;SDS011;11187;49.412;20.956;2024-02-16T07:43:15;59.42;;;32.63;;
22046;SDS011;11187;49.412;20.956;2024-02-16T07:45:56;45.83;;;30.02;;
22046;SDS011;11187;49.412;20.956;2024-02-16T07:48:37;54.55;;;32.83;;
22046;SDS011;11187;49.412;20.956;2024-02-16T07:51:16;58.78;;;33.78;;
22046;SDS011;11187;49.412;20.956;2024-02-16T07:54:00;54.60;;;32.92;;
22046;SDS011;11187;49.412;20.956;2024-02-16T07:56:46;57.22;;;32.78;;
22046;SDS011;11187;49.412;20.956;2024-02-16T07:59:27;54.95;;;33.00;;
22046;SDS011;11187;49.412;20.956;2024-02-16T08:02:06;70.05;;;33.30;;
22046;SDS011;11187;49.412;20.956;2024-02-16T08:04:59;53.88;;;31.77;;
22046;SDS011;11187;49.412;20.956;2024-02-16T08:07:54;56.33;;;32.67;;
22046;SDS011;11187;49.412;20.956;2024-02-16T08:10:31;57.78;;;31.95;;
22046;SDS011;11187;49.412;20.956;2024-02-16T08:13:17;56.70;;;31.10;;
22046;SDS011;11187;49.412;20.956;2024-02-16T08:15:52;57.67;;;32.00;;
22046;SDS011;11187;49.412;20.956;2024-02-16T08:18:45;58.47;;;30.08;;
22046;SDS011;11187;49.412;20.956;2024-02-16T08:21:40;58.28;;;31.95;;
22046;SDS011;11187;49.412;20.956;2024-02-16T08:24:13;55.88;;;32.28;;
22046;SDS011;11187;49.412;20.956;2024-02-16T08:27:06;50.05;;;31.58;;
22046;SDS011;11187;49.412;20.956;2024-02-16T08:29:42;50.50;;;30.63;;
22046;SDS011;11187;49.412;20.956;2024-02-16T08:32:32;58.00;;;33.13;;
22046;SDS011;11187;49.412;20.956;2024-02-16T08:35:05;59.05;;;33.20;;
22046;SDS011;11187;49.412;20.956;2024-02-16T08:38:01;54.28;;;32.85;;
22046;SDS011;11187;49.412;20.956;2024-02-16T08:40:34;50.45;;;30.98;;
22046;SDS011;11187;49.412;20.956;2024-02-16T08:43:28;47.28;;;30.50;;
22046;SDS011;11187;49.412;20.956;2024-02-16T08:46:01;45.33;;;31.52;;
22046;SDS011;11187;49.412;20.956;2024-02-16T08:48:55;48.13;;;27.92;;
22046;SDS011;11187;49.412;20.956;2024-02-16T08:51:50;54.65;;;30.45;;
22046;SDS011;11187;49.412;20.956;2024-02-16T08:54:30;52.78;;;30.02;;
22046;SDS011;11187;49.412;20.956;2024-02-16T08:57:17;45.35;;;29.38;;
22046;SDS011;11187;49.412;20.956;2024-02-16T08:59:57;50.45;;;31.35;;
22046;SDS011;11187;49.412;20.956;2024-02-16T09:02:36;48.47;;;27.92;;
22046;SDS011;11187;49.412;20.956;2024-02-16T09:05:24;51.05;;;28.60;;
22046;SDS011;11187;49.412;20.956;2024-02-16T09:08:18;51.83;;;29.58;;
22046;SDS011;11187;49.412;20.956;2024-02-16T09:11:12;54.47;;;30.33;;
22046;SDS011;11187;49.412;20.956;2024-02-16T09:14:06;46.53;;;28.08;;
22046;SDS011;11187;49.412;20.956;2024-02-16T09:17:00;54.50;;;33.50;;
22046;SDS011;11187;49.412;20.956;2024-02-16T09:19:34;46.38;;;29.05;;
22046;SDS011;11187;49.412;20.956;2024-02-16T09:22:20;45.05;;;27.58;;
22046;SDS011;11187;49.412;20.956;2024-02-16T09:24:57;41.42;;;29.17;;
22046;SDS011;11187;49.412;20.956;2024-02-16T09:27:44;46.33;;;30.00;;
22046;SDS011;11187;49.412;20.956;2024-02-16T09:30:17;43.95;;;27.95;;
22046;SDS011;11187;49.412;20.956;2024-02-16T09:33:04;42.58;;;29.23;;
22046;SDS011;11187;49.412;20.956;2024-02-16T09:35:37;44.42;;;27.38;;
22046;SDS011;11187;49.412;20.956;2024-02-16T09:38:27;43.78;;;33.03;;
22046;SDS011;11187;49.412;20.956;2024-02-16T09:41:00;48.42;;;35.05;;
22046;SDS011;11187;49.412;20.956;2024-02-16T09:43:46;50.53;;;32.97;;
22046;SDS011;11187;49.412;20.956;2024-02-16T09:46:21;40.83;;;29.80;;
22046;SDS011;11187;49.412;20.956;2024-02-16T09:49:10;41.97;;;27.17;;
22046;SDS011;11187;49.412;20.956;2024-02-16T09:51:51;45.53;;;30.08;;
22046;SDS011;11187;49.412;20.956;2024-02-16T09:54:44;42.38;;;28.05;;
22046;SDS011;11187;49.412;20.956;2024-02-16T09:57:18;36.83;;;28.65;;
22046;SDS011;11187;49.412;20.956;2024-02-16T10:00:13;42.65;;;30.02;;
22046;SDS011;11187;49.412;20.956;2024-02-16T10:03:06;45.15;;;29.90;;
22046;SDS011;11187;49.412;20.956;2024-02-16T10:05:43;42.70;;;26.73;;
22046;SDS011;11187;49.412;20.956;2024-02-16T10:08:30;40.40;;;28.50;;
22046;SDS011;11187;49.412;20.956;2024-02-16T10:11:05;37.38;;;26.25;;
22046;SDS011;11187;49.412;20.956;2024-02-16T10:13:58;34.42;;;25.65;;
22046;SDS011;11187;49.412;20.956;2024-02-16T10:16:35;37.58;;;25.75;;
22046;SDS011;11187;49.412;20.956;2024-02-16T10:19:29;31.60;;;21.95;;
22046;SDS011;11187;49.412;20.956;2024-02-16T10:22:12;36.08;;;23.42;;
22046;SDS011;11187;49.412;20.956;2024-02-16T10:25:06;31.83;;;24.25;;
22046;SDS011;11187;49.412;20.956;2024-02-16T10:27:54;32.35;;;23.52;;
22046;SDS011;11187;49.412;20.956;2024-02-16T10:30:35;32.67;;;24.42;;
22046;SDS011;11187;49.412;20.956;2024-02-16T10:33:19;35.75;;;26.27;;
22046;SDS011;11187;49.412;20.956;2024-02-16T10:36:07;34.95;;;23.23;;
22046;SDS011;11187;49.412;20.956;2024-02-16T10:38:41;35.03;;;23.10;;
22046;SDS011;11187;49.412;20.956;2024-02-16T10:41:30;35.03;;;25.80;;
22046;SDS011;11187;49.412;20.956;2024-02-16T10:44:07;32.20;;;26.17;;
22046;SDS011;11187;49.412;20.956;2024-02-16T10:46:57;31.52;;;22.83;;
22046;SDS011;11187;49.412;20.956;2024-02-16T10:49:34;25.05;;;22.30;;
22046;SDS011;11187;49.412;20.956;2024-02-16T10:52:21;26.45;;;22.48;;
22046;SDS011;11187;49.412;20.956;2024-02-16T10:54:55;25.52;;;20.55;;
22046;SDS011;11187;49.412;20.956;2024-02-16T10:57:44;27.05;;;24.38;;
22046;SDS011;11187;49.412;20.956;2024-02-16T11:00:19;25.95;;;22.13;;
22046;SDS011;11187;49.412;20.956;2024-02-16T11:03:06;24.70;;;19.83;;
22046;SDS011;11187;49.412;20.956;2024-02-16T11:05:55;25.00;;;20.42;;
22046;SDS011;11187;49.412;20.956;2024-02-16T11:08:49;23.00;;;20.00;;
22046;SDS011;11187;49.412;20.956;2024-02-16T11:11:23;23.02;;;20.05;;
22046;SDS011;11187;49.412;20.956;2024-02-16T11:14:17;24.10;;;20.55;;
22046;SDS011;11187;49.412;20.956;2024-02-16T11:17:11;22.58;;;18.98;;
22046;SDS011;11187;49.412;20.956;2024-02-16T11:19:46;27.42;;;19.83;;
22046;SDS011;11187;49.412;20.956;2024-02-16T11:22:36;23.10;;;19.58;;
22046;SDS011;11187;49.412;20.956;2024-02-16T11:25:11;21.65;;;19.23;;
22046;SDS011;11187;49.412;20.956;2024-02-16T11:27:58;21.38;;;18.45;;
22046;SDS011;11187;49.412;20.956;2024-02-16T11:30:39;23.05;;;20.58;;
22046;SDS011;11187;49.412;20.956;2024-02-16T11:33:19;21.58;;;19.33;;
22046;SDS011;11187;49.412;20.956;2024-02-16T11:35:59;22.67;;;18.63;;
22046;SDS011;11187;49.412;20.956;2024-02-16T11:38:43;25.33;;;19.40;;
22046;SDS011;11187;49.412;20.956;2024-02-16T11:41:23;22.02;;;17.45;;
22046;SDS011;11187;49.412;20.956;2024-02-16T11:44:03;20.92;;;15.93;;
22046;SDS011;11187;49.412;20.956;2024-02-16T11:46:43;20.95;;;18.58;;
22046;SDS011;11187;49.412;20.956;2024-02-16T11:49:23;22.40;;;16.70;;
22046;SDS011;11187;49.412;20.956;2024-02-16T11:52:06;19.08;;;17.17;;
22046;SDS011;11187;49.412;20.956;2024-02-16T11:54:47;21.23;;;18.70;;
22046;SDS011;11187;49.412;20.956;2024-02-16T11:57:29;21.40;;;17.63;;
22046;SDS011;11187;49.412;20.956;2024-02-16T12:00:09;18.80;;;16.80;;
22046;SDS011;11187;49.412;20.956;2024-02-16T12:03:02;17.95;;;15.65;;
22046;SDS011;11187;49.412;20.956;2024-02-16T12:05:53;23.98;;;17.98;;
22046;SDS011;11187;49.412;20.956;2024-02-16T12:08:36;21.65;;;19.50;;
22046;SDS011;11187;49.412;20.956;2024-02-16T12:11:30;21.48;;;19.20;;
22046;SDS011;11187;49.412;20.956;2024-02-16T12:14:24;23.50;;;19.27;;
22046;SDS011;11187;49.412;20.956;2024-02-16T12:17:18;20.42;;;18.02;;
22046;SDS011;11187;49.412;20.956;2024-02-16T12:20:12;23.48;;;16.77;;
22046;SDS011;11187;49.412;20.956;2024-02-16T12:23:12;23.58;;;18.98;;
22046;SDS011;11187;49.412;20.956;2024-02-16T12:26:06;19.65;;;17.23;;
22046;SDS011;11187;49.412;20.956;2024-02-16T12:28:47;24.33;;;19.13;;
22046;SDS011;11187;49.412;20.956;2024-02-16T12:31:34;21.65;;;18.23;;
22046;SDS011;11187;49.412;20.956;2024-02-16T12:34:17;21.73;;;19.52;;
22046;SDS011;11187;49.412;20.956;2024-02-16T12:36:59;21.17;;;18.92;;
22046;SDS011;11187;49.412;20.956;2024-02-16T12:39:39;23.77;;;17.60;;
22046;SDS011;11187;49.412;20.956;2024-02-16T12:42:27;25.25;;;20.17;;
22046;SDS011;11187;49.412;20.956;2024-02-16T12:45:00;23.30;;;21.05;;
22046;SDS011;11187;49.412;20.956;2024-02-16T12:47:47;22.75;;;19.20;;
22046;SDS011;11187;49.412;20.956;2024-02-16T12:50:20;25.92;;;23.02;;
22046;SDS011;11187;49.412;20.956;2024-02-16T12:53:07;23.50;;;19.75;;
22046;SDS011;11187;49.412;20.956;2024-02-16T12:55:48;30.17;;;20.67;;
22046;SDS011;11187;49.412;20.956;2024-02-16T12:58:38;25.50;;;19.30;;
22046;SDS011;11187;49.412;20.956;2024-02-16T13:01:12;23.67;;;20.98;;
22046;SDS011;11187;49.412;20.956;2024-02-16T13:03:59;24.48;;;19.55;;
22046;SDS011;11187;49.412;20.956;2024-02-16T13:06:32;23.42;;;20.77;;
22046;SDS011;11187;49.412;20.956;2024-02-16T13:09:19;29.35;;;22.63;;
22046;SDS011;11187;49.412;20.956;2024-02-16T13:11:59;28.20;;;20.42;;
22046;SDS011;11187;49.412;20.956;2024-02-16T13:14:49;27.30;;;22.45;;
22046;SDS011;11187;49.412;20.956;2024-02-16T13:17:31;24.33;;;20.40;;
22046;SDS011;11187;49.412;20.956;2024-02-16T13:20:11;25.35;;;22.60;;
22046;SDS011;11187;49.412;20.956;2024-02-16T13:22:51;26.02;;;22.30;;
22046;SDS011;11187;49.412;20.956;2024-02-16T13:25:40;29.67;;;22.75;;
22046;SDS011;11187;49.412;20.956;2024-02-16T13:28:20;34.05;;;22.42;;
22046;SDS011;11187;49.412;20.956;2024-02-16T13:31:07;27.88;;;21.55;;
22046;SDS011;11187;49.412;20.956;2024-02-16T13:33:49;27.60;;;21.58;;
22046;SDS011;11187;49.412;20.956;2024-02-16T13:36:38;26.50;;;23.30;;
22046;SDS011;11187;49.412;20.956;2024-02-16T13:39:19;30.65;;;23.30;;
22046;SDS011;11187;49.412;20.956;2024-02-16T13:42:07;26.83;;;21.20;;
22046;SDS011;11187;49.412;20.956;2024-02-16T13:44:47;28.73;;;23.52;;
22046;SDS011;11187;49.412;20.956;2024-02-16T13:47:27;34.47;;;22.77;;
22046;SDS011;11187;49.412;20.956;2024-02-16T13:50:07;27.77;;;21.25;;
22046;SDS011;11187;49.412;20.956;2024-02-16T13:52:47;24.63;;;21.48;;
22046;SDS011;11187;49.412;20.956;2024-02-16T13:55:27;29.75;;;24.25;;
22046;SDS011;11187;49.412;20.956;2024-02-16T13:58:14;27.85;;;22.27;;
22046;SDS011;11187;49.412;20.956;2024-02-16T14:00:54;28.77;;;23.02;;
22046;SDS011;11187;49.412;20.956;2024-02-16T14:03:41;27.65;;;24.42;;
22046;SDS011;11187;49.412;20.956;2024-02-16T14:06:28;26.73;;;23.05;;
22046;SDS011;11187;49.412;20.956;2024-02-16T14:09:22;27.23;;;21.95;;
22046;SDS011;11187;49.412;20.956;2024-02-16T14:11:59;28.95;;;22.63;;
22046;SDS011;11187;49.412;20.956;2024-02-16T14:14:47;26.15;;;22.63;;
22046;SDS011;11187;49.412;20.956;2024-02-16T14:17:21;26.58;;;23.05;;
22046;SDS011;11187;49.412;20.956;2024-02-16T14:20:08;28.42;;;24.05;;
22046;SDS011;11187;49.412;20.956;2024-02-16T14:22:41;31.27;;;22.60;;
22046;SDS011;11187;49.412;20.956;2024-02-16T14:25:35;29.92;;;23.20;;
22046;SDS011;11187;49.412;20.956;2024-02-16T14:28:10;33.28;;;25.90;;
22046;SDS011;11187;49.412;20.956;2024-02-16T14:31:04;28.88;;;23.48;;
22046;SDS011;11187;49.412;20.956;2024-02-16T14:34:00;32.22;;;21.25;;
22046;SDS011;11187;49.412;20.956;2024-02-16T14:36:40;37.53;;;26.08;;
22046;SDS011;11187;49.412;20.956;2024-02-16T14:39:27;39.42;;;26.08;;
22046;SDS011;11187;49.412;20.956;2024-02-16T14:42:00;29.08;;;23.48;;
22046;SDS011;11187;49.412;20.956;2024-02-16T14:44:47;27.10;;;22.75;;
22046;SDS011;11187;49.412;20.956;2024-02-16T14:47:24;30.08;;;22.98;;
22046;SDS011;11187;49.412;20.956;2024-02-16T14:50:11;26.42;;;22.58;;
22046;SDS011;11187;49.412;20.956;2024-02-16T14:52:52;30.88;;;23.95;;
22046;SDS011;11187;49.412;20.956;2024-02-16T14:55:32;26.60;;;21.92;;
22046;SDS011;11187;49.412;20.956;2024-02-16T14:58:12;32.95;;;24.13;;
22046;SDS011;11187;49.412;20.956;2024-02-16T15:00:59;37.50;;;25.55;;
22046;SDS011;11187;49.412;20.956;2024-02-16T15:03:32;28.13;;;22.05;;
22046;SDS011;11187;49.412;20.956;2024-02-16T15:06:19;28.73;;;21.90;;
22046;SDS011;11187;49.412;20.956;2024-02-16T15:08:59;28.92;;;22.05;;
22046;SDS011;11187;49.412;20.956;2024-02-16T15:11:40;31.27;;;23.10;;
22046;SDS011;11187;49.412;20.956;2024-02-16T15:14:20;28.38;;;21.77;;
22046;SDS011;11187;49.412;20.956;2024-02-16T15:17:07;29.88;;;22.33;;
22046;SDS011;11187;49.412;20.956;2024-02-16T15:19:41;40.58;;;22.33;;
22046;SDS011;11187;49.412;20.956;2024-02-16T15:22:28;28.75;;;23.25;;
22046;SDS011;11187;49.412;20.956;2024-02-16T15:25:14;29.02;;;22.85;;
22046;SDS011;11187;49.412;20.956;2024-02-16T15:28:01;35.67;;;21.27;;
22046;SDS011;11187;49.412;20.956;2024-02-16T15:30:34;29.23;;;21.48;;
22046;SDS011;11187;49.412;20.956;2024-02-16T15:33:21;33.85;;;22.65;;
22046;SDS011;11187;49.412;20.956;2024-02-16T15:35:54;60.22;;;24.67;;
22046;SDS011;11187;49.412;20.956;2024-02-16T15:38:41;32.03;;;22.10;;
22046;SDS011;11187;49.412;20.956;2024-02-16T15:41:14;34.15;;;22.58;;
22046;SDS011;11187;49.412;20.956;2024-02-16T15:44:01;164.68;;;32.38;;
22046;SDS011;11187;49.412;20.956;2024-02-16T15:46:35;59.80;;;25.88;;